Time;durP1;ratioP1;P1;durP2;ratioP2;P2;SDS_P1;SDS_P2;PMS_P1;PMS_P2;Temp;Humidity;BMP_temperature;BMP_pressure;BME280_temperature;BME280_humidity;BME280_pressure;Samples;Min_cycle;Max_cycle;Signal;HPM_P1;HPM_P2
2021/12/03 00:02:08;;;;;;;18.08;3.75;;;;;;;;;;5017264;28;93413;-61
2021/12/03 00:04:35;;;;;;;10.68;3.53;;;;;;;;;;5013948;28;93179;-61
2021/12/03 00:07:01;;;;;;;9.52;3.42;;;;;;;;;;5018228;28;93124;-61
2021/12/03 00:09:32;;;;;;;10.68;3.38;;;;;;;;;;5014258;28;92662;-61
2021/12/03 00:11:58;;;;;;;5.20;2.70;;;;;;;;;;5014683;28;92642;-61
2021/12/03 00:14:25;;;;;;;7.65;3.10;;;;;;;;;;5014145;28;92530;-61
2021/12/03 00:16:51;;;;;;;6.40;3.05;;;;;;;;;;5015128;28;91724;-61
2021/12/03 00:19:17;;;;;;;7.88;3.17;;;;;;;;;;5013672;28;92733;-61
2021/12/03 00:21:44;;;;;;;10.65;3.13;;;;;;;;;;5014395;28;94794;-60
2021/12/03 00:24:10;;;;;;;8.20;3.08;;;;;;;;;;5017025;28;94844;-61
2021/12/03 00:26:37;;;;;;;5.03;2.92;;;;;;;;;;5015122;28;95667;-61
2021/12/03 00:29:04;;;;;;;5.90;2.90;;;;;;;;;;5014464;28;92589;-61
2021/12/03 00:31:30;;;;;;;10.40;3.42;;;;;;;;;;5013157;28;94368;-61
2021/12/03 00:33:56;;;;;;;9.60;3.30;;;;;;;;;;5014326;28;94461;-61
2021/12/03 00:36:23;;;;;;;10.32;3.00;;;;;;;;;;5013993;28;92508;-61
2021/12/03 00:38:54;;;;;;;7.18;3.67;;;;;;;;;;5014057;28;92465;-61
2021/12/03 00:41:21;;;;;;;10.93;3.03;;;;;;;;;;5015477;28;92560;-61
2021/12/03 00:43:51;;;;;;;8.85;3.03;;;;;;;;;;5014289;28;92426;-61
2021/12/03 00:46:18;;;;;;;5.88;3.08;;;;;;;;;;5016528;28;93430;-62
2021/12/03 00:48:46;;;;;;;9.38;3.75;;;;;;;;;;5012418;28;94822;-61
2021/12/03 00:51:12;;;;;;;7.40;3.60;;;;;;;;;;5022490;27;95559;-61
2021/12/03 00:53:39;;;;;;;12.38;4.18;;;;;;;;;;5034242;27;92300;-62
2021/12/03 00:56:07;;;;;;;8.23;3.88;;;;;;;;;;5016951;27;92398;-61
2021/12/03 00:58:33;;;;;;;10.65;3.58;;;;;;;;;;5014514;28;93171;-61
2021/12/03 01:00:59;;;;;;;8.70;3.88;;;;;;;;;;5014035;28;93317;-61
2021/12/03 01:03:26;;;;;;;10.25;4.35;;;;;;;;;;5014508;28;92479;-61
2021/12/03 01:05:52;;;;;;;9.60;4.40;;;;;;;;;;5017831;28;93268;-61
2021/12/03 01:08:19;;;;;;;10.95;4.45;;;;;;;;;;5023753;28;92355;-61
2021/12/03 01:10:46;;;;;;;10.98;4.50;;;;;;;;;;5037421;27;92314;-61
2021/12/03 01:13:13;;;;;;;14.90;4.18;;;;;;;;;;5034479;27;96019;-61
2021/12/03 01:15:39;;;;;;;11.70;5.28;;;;;;;;;;5028333;27;92389;-61
2021/12/03 01:18:07;;;;;;;16.27;6.28;;;;;;;;;;5017429;28;92472;-61
2021/12/03 01:20:33;;;;;;;14.52;4.80;;;;;;;;;;5016531;28;93661;-61
2021/12/03 01:23:00;;;;;;;11.95;5.03;;;;;;;;;;5016702;28;92564;-61
2021/12/03 01:25:27;;;;;;;13.43;6.13;;;;;;;;;;5017034;28;92324;-61
2021/12/03 01:27:53;;;;;;;11.63;5.32;;;;;;;;;;5020713;27;92692;-62
2021/12/03 01:30:20;;;;;;;8.57;4.85;;;;;;;;;;5022545;27;92123;-61
2021/12/03 01:32:47;;;;;;;9.98;5.18;;;;;;;;;;5018077;28;93766;-61
2021/12/03 01:35:13;;;;;;;6.88;4.70;;;;;;;;;;5015715;28;92543;-61
2021/12/03 01:37:41;;;;;;;11.55;5.40;;;;;;;;;;5015123;28;94725;-61
2021/12/03 01:40:09;;;;;;;13.45;5.45;;;;;;;;;;5035037;28;93266;-61
2021/12/03 01:42:37;;;;;;;9.40;5.28;;;;;;;;;;5025223;27;92505;-61
2021/12/03 01:45:04;;;;;;;14.23;5.65;;;;;;;;;;5017254;28;93032;-61
2021/12/03 01:47:30;;;;;;;11.65;5.90;;;;;;;;;;5016484;28;94213;-61
2021/12/03 01:49:57;;;;;;;9.85;5.53;;;;;;;;;;5016789;28;92441;-61
2021/12/03 01:52:23;;;;;;;7.03;5.28;;;;;;;;;;5020522;28;94874;-62
2021/12/03 01:54:49;;;;;;;13.77;5.10;;;;;;;;;;5017280;28;91703;-61
2021/12/03 01:57:17;;;;;;;12.75;5.57;;;;;;;;;;5016705;28;92582;-61
2021/12/03 01:59:43;;;;;;;11.77;4.82;;;;;;;;;;5018012;28;93624;-61
2021/12/03 02:02:09;;;;;;;14.10;5.20;;;;;;;;;;5030175;28;94766;-61
2021/12/03 02:04:36;;;;;;;11.25;5.40;;;;;;;;;;5017057;28;96525;-61
2021/12/03 02:07:02;;;;;;;11.25;5.38;;;;;;;;;;5035579;28;92389;-61
2021/12/03 02:09:29;;;;;;;12.77;5.30;;;;;;;;;;5035886;27;92544;-61
2021/12/03 02:11:55;;;;;;;8.52;5.03;;;;;;;;;;5038208;27;92391;-61
2021/12/03 02:14:21;;;;;;;9.70;4.85;;;;;;;;;;5034734;27;92535;-61
2021/12/03 02:16:48;;;;;;;11.57;5.05;;;;;;;;;;5035756;27;93953;-61
2021/12/03 02:19:14;;;;;;;18.48;5.15;;;;;;;;;;5037125;28;94261;-61
2021/12/03 02:21:40;;;;;;;14.23;5.28;;;;;;;;;;5036574;27;92482;-61
2021/12/03 02:24:07;;;;;;;10.82;5.03;;;;;;;;;;5026504;27;93128;-61
2021/12/03 02:26:33;;;;;;;10.02;4.78;;;;;;;;;;5014783;28;95850;-61
2021/12/03 02:28:59;;;;;;;13.68;4.85;;;;;;;;;;5027439;28;92430;-61
2021/12/03 02:31:26;;;;;;;9.75;4.43;;;;;;;;;;5033324;27;94726;-61
2021/12/03 02:33:53;;;;;;;11.43;5.20;;;;;;;;;;5019578;28;92434;-61
2021/12/03 02:36:19;;;;;;;10.98;4.82;;;;;;;;;;5014998;28;95368;-62
2021/12/03 02:38:46;;;;;;;9.77;5.25;;;;;;;;;;5014779;28;92545;-61
2021/12/03 02:41:12;;;;;;;11.50;4.95;;;;;;;;;;5014812;28;92313;-61
2021/12/03 02:43:39;;;;;;;8.10;4.47;;;;;;;;;;5018295;28;93169;-62
2021/12/03 02:46:05;;;;;;;10.70;4.43;;;;;;;;;;5015534;28;92707;-61
2021/12/03 02:48:35;;;;;;;8.27;4.18;;;;;;;;;;5015819;28;92385;-60
2021/12/03 02:51:01;;;;;;;8.07;4.70;;;;;;;;;;5014783;28;94718;-61
2021/12/03 02:53:27;;;;;;;8.27;4.45;;;;;;;;;;5019765;28;92439;-61
2021/12/03 02:55:54;;;;;;;7.88;4.38;;;;;;;;;;5024954;27;92402;-61
2021/12/03 02:58:21;;;;;;;10.40;4.20;;;;;;;;;;5015865;28;92424;-61
2021/12/03 03:00:50;;;;;;;6.53;4.18;;;;;;;;;;4995850;28;92714;-61
2021/12/03 03:03:16;;;;;;;14.43;4.25;;;;;;;;;;5006378;28;92447;-62
2021/12/03 03:05:53;;;;;;;14.23;4.55;;;;;;;;;;5015037;28;93925;-61
2021/12/03 03:08:19;;;;;;;13.38;4.55;;;;;;;;;;5016161;28;92025;-61
2021/12/03 03:10:46;;;;;;;10.05;4.55;;;;;;;;;;5035965;27;92859;-61
2021/12/03 03:13:13;;;;;;;6.43;3.92;;;;;;;;;;5035357;27;92358;-61
2021/12/03 03:15:39;;;;;;;7.88;4.68;;;;;;;;;;5034289;27;94706;-61
2021/12/03 03:18:12;;;;;;;15.77;4.95;;;;;;;;;;5016501;28;94513;-61
2021/12/03 03:20:39;;;;;;;9.10;4.03;;;;;;;;;;5015400;28;92788;-61
2021/12/03 03:23:06;;;;;;;10.02;4.15;;;;;;;;;;5015290;28;93259;-61
2021/12/03 03:25:32;;;;;;;10.35;4.70;;;;;;;;;;5014788;28;93893;-61
2021/12/03 03:27:58;;;;;;;18.85;5.05;;;;;;;;;;5013852;28;92798;-61
2021/12/03 03:30:24;;;;;;;8.82;4.88;;;;;;;;;;5015418;28;93268;-61
2021/12/03 03:32:51;;;;;;;15.63;5.57;;;;;;;;;;5015001;28;92771;-61
2021/12/03 03:35:17;;;;;;;14.50;5.47;;;;;;;;;;5015579;28;92298;-61
2021/12/03 03:37:44;;;;;;;16.17;5.68;;;;;;;;;;5014792;28;93125;-61
2021/12/03 03:40:10;;;;;;;13.88;6.18;;;;;;;;;;5016712;28;95183;-61
2021/12/03 03:42:37;;;;;;;10.40;5.70;;;;;;;;;;5013444;28;94376;-62
2021/12/03 03:45:05;;;;;;;10.70;6.03;;;;;;;;;;5014709;28;92372;-61
2021/12/03 03:47:31;;;;;;;9.68;6.22;;;;;;;;;;5014444;28;92426;-61
2021/12/03 03:49:57;;;;;;;15.02;6.65;;;;;;;;;;5014970;28;93362;-61
2021/12/03 03:52:24;;;;;;;19.10;7.18;;;;;;;;;;5015068;28;93802;-61
2021/12/03 03:54:50;;;;;;;14.05;7.68;;;;;;;;;;5014231;28;92507;-61
2021/12/03 03:57:16;;;;;;;13.70;7.57;;;;;;;;;;5014254;28;93067;-61
2021/12/03 03:59:42;;;;;;;19.88;8.35;;;;;;;;;;5008972;28;92495;-61
2021/12/03 04:02:09;;;;;;;14.35;8.85;;;;;;;;;;5017220;28;92451;-61
2021/12/03 04:04:35;;;;;;;17.10;9.80;;;;;;;;;;5011970;28;95994;-61
2021/12/03 04:07:02;;;;;;;16.50;9.85;;;;;;;;;;5013799;28;92539;-61
2021/12/03 04:09:28;;;;;;;17.52;9.15;;;;;;;;;;5013801;28;92482;-61
2021/12/03 04:11:54;;;;;;;18.38;8.75;;;;;;;;;;5014261;28;93956;-61
2021/12/03 04:14:21;;;;;;;20.27;10.20;;;;;;;;;;5013806;28;92760;-61
2021/12/03 04:16:48;;;;;;;19.85;10.50;;;;;;;;;;5011675;28;93564;-61
2021/12/03 04:19:14;;;;;;;16.20;9.68;;;;;;;;;;5012897;28;92479;-61
2021/12/03 04:21:46;;;;;;;23.55;11.18;;;;;;;;;;5017771;28;91996;-61
2021/12/03 04:24:12;;;;;;;21.08;10.52;;;;;;;;;;5012643;28;92473;-61
2021/12/03 04:26:38;;;;;;;16.85;10.60;;;;;;;;;;5013062;28;92731;-61
2021/12/03 04:29:04;;;;;;;20.60;11.35;;;;;;;;;;5011632;28;95125;-61
2021/12/03 04:31:31;;;;;;;16.80;11.90;;;;;;;;;;5013306;28;92379;-61
2021/12/03 04:33:57;;;;;;;20.05;12.50;;;;;;;;;;5013095;28;92397;-61
2021/12/03 04:36:24;;;;;;;20.52;12.88;;;;;;;;;;5013600;28;94354;-61
2021/12/03 04:38:50;;;;;;;18.23;12.63;;;;;;;;;;5012141;28;92586;-61
2021/12/03 04:41:16;;;;;;;19.17;12.35;;;;;;;;;;5013382;28;92447;-61
2021/12/03 04:43:42;;;;;;;20.27;13.52;;;;;;;;;;5012715;28;93566;-61
2021/12/03 04:46:09;;;;;;;18.27;12.48;;;;;;;;;;5012920;28;92100;-61
2021/12/03 04:48:35;;;;;;;28.13;13.80;;;;;;;;;;5013427;28;92468;-61
2021/12/03 04:51:02;;;;;;;17.80;13.55;;;;;;;;;;5013055;28;92445;-61
2021/12/03 04:53:28;;;;;;;22.92;14.10;;;;;;;;;;5010722;28;95458;-61
2021/12/03 04:55:55;;;;;;;17.52;12.43;;;;;;;;;;5012911;28;96016;-61
2021/12/03 04:58:21;;;;;;;18.85;13.43;;;;;;;;;;5011616;28;93465;-61
2021/12/03 05:00:52;;;;;;;26.75;13.63;;;;;;;;;;5004181;28;92546;-61
2021/12/03 05:03:19;;;;;;;;;;;;;;;;;;5013340;28;92972;-61
2021/12/03 05:05:54;;;;;;;17.83;12.27;;;;;;;;;;5017562;28;124026;-61
2021/12/03 05:08:21;;;;;;;20.02;12.98;;;;;;;;;;5012855;28;93032;-61
2021/12/03 05:10:48;;;;;;;19.52;12.75;;;;;;;;;;5013293;28;92614;-61
2021/12/03 05:13:16;;;;;;;19.33;12.25;;;;;;;;;;5011585;28;92593;-61
2021/12/03 05:15:43;;;;;;;20.38;13.13;;;;;;;;;;5012491;28;92380;-61
2021/12/03 05:18:10;;;;;;;19.33;11.80;;;;;;;;;;5011435;28;95182;-61
2021/12/03 05:20:37;;;;;;;23.48;12.77;;;;;;;;;;5011369;28;92426;-61
2021/12/03 05:23:03;;;;;;;18.95;11.18;;;;;;;;;;5012325;28;92398;-61
2021/12/03 05:25:30;;;;;;;20.13;12.25;;;;;;;;;;5012178;28;92355;-61
2021/12/03 05:27:57;;;;;;;24.10;13.60;;;;;;;;;;5013850;28;92523;-61
2021/12/03 05:30:23;;;;;;;23.98;11.80;;;;;;;;;;5006125;28;92363;-61
2021/12/03 05:32:49;;;;;;;21.55;12.13;;;;;;;;;;5007298;28;92509;-61
2021/12/03 05:35:16;;;;;;;20.10;11.25;;;;;;;;;;5012056;28;93142;-61
2021/12/03 05:37:42;;;;;;;20.15;12.45;;;;;;;;;;5012352;28;92499;-61
2021/12/03 05:40:10;;;;;;;20.70;11.65;;;;;;;;;;5012906;28;92473;-61
2021/12/03 05:42:37;;;;;;;20.92;12.35;;;;;;;;;;5010776;28;94956;-61
2021/12/03 05:45:08;;;;;;;22.80;12.48;;;;;;;;;;5012247;28;93517;-61
2021/12/03 05:47:34;;;;;;;;;;;;;;;;;;5013563;28;92458;-61
2021/12/03 05:50:01;;;;;;;23.95;12.18;;;;;;;;;;5017147;28;122158;-61
2021/12/03 05:52:28;;;;;;;24.50;12.48;;;;;;;;;;5016023;28;92406;-61
2021/12/03 05:54:54;;;;;;;23.73;12.57;;;;;;;;;;5015409;28;93286;-61
2021/12/03 05:57:20;;;;;;;26.27;12.93;;;;;;;;;;5015547;28;92430;-62
2021/12/03 05:59:46;;;;;;;23.85;13.20;;;;;;;;;;5004921;28;91709;-61
2021/12/03 06:02:13;;;;;;;25.08;12.05;;;;;;;;;;4997986;28;92562;-61
2021/12/03 06:04:39;;;;;;;23.83;12.90;;;;;;;;;;5015544;28;92444;-61
2021/12/03 06:07:06;;;;;;;25.17;12.98;;;;;;;;;;5013972;28;94927;-61
2021/12/03 06:09:32;;;;;;;22.17;12.30;;;;;;;;;;5018814;28;97112;-61
2021/12/03 06:12:01;;;;;;;25.70;12.65;;;;;;;;;;5015999;28;92440;-61
2021/12/03 06:14:28;;;;;;;22.33;11.88;;;;;;;;;;5014380;28;92475;-61
2021/12/03 06:16:55;;;;;;;22.85;12.60;;;;;;;;;;5015131;28;92411;-61
2021/12/03 06:19:22;;;;;;;23.83;10.93;;;;;;;;;;5007295;28;92417;-61
2021/12/03 06:21:48;;;;;;;21.67;12.05;;;;;;;;;;4995653;28;93587;-61
2021/12/03 06:24:14;;;;;;;28.98;11.23;;;;;;;;;;4996241;28;91699;-61
2021/12/03 06:26:40;;;;;;;26.58;11.00;;;;;;;;;;5009779;28;92455;-61
2021/12/03 06:29:07;;;;;;;28.65;11.73;;;;;;;;;;5014850;28;93582;-61
2021/12/03 06:31:33;;;;;;;28.08;11.07;;;;;;;;;;5016587;28;96125;-61
2021/12/03 06:34:00;;;;;;;32.47;11.68;;;;;;;;;;5015044;28;98338;-61
2021/12/03 06:36:26;;;;;;;26.90;11.07;;;;;;;;;;5014869;28;94491;-61
2021/12/03 06:38:53;;;;;;;39.88;14.50;;;;;;;;;;5014989;28;92313;-61
2021/12/03 06:41:19;;;;;;;35.90;12.20;;;;;;;;;;5004559;28;92973;-61
2021/12/03 06:43:45;;;;;;;26.30;11.27;;;;;;;;;;5015641;28;93361;-61
2021/12/03 06:46:11;;;;;;;27.05;11.57;;;;;;;;;;5002623;28;92385;-61
2021/12/03 06:48:38;;;;;;;29.40;10.98;;;;;;;;;;4995929;28;94527;-61
2021/12/03 06:51:04;;;;;;;38.15;11.23;;;;;;;;;;5012004;28;93250;-62
2021/12/03 06:53:41;;;;;;;36.28;11.57;;;;;;;;;;5018438;28;92472;-61
2021/12/03 06:56:10;;;;;;;32.40;11.15;;;;;;;;;;5013146;28;94784;-61
2021/12/03 06:58:36;;;;;;;46.75;12.65;;;;;;;;;;5009978;28;92584;-61
2021/12/03 07:01:03;;;;;;;42.60;12.93;;;;;;;;;;4994676;28;92553;-61
2021/12/03 07:03:29;;;;;;;43.08;11.95;;;;;;;;;;5007674;28;93494;-61
2021/12/03 07:05:56;;;;;;;46.38;13.10;;;;;;;;;;5014940;28;92841;-61
2021/12/03 07:08:22;;;;;;;40.28;13.68;;;;;;;;;;5014173;28;92408;-61
2021/12/03 07:10:48;;;;;;;38.33;11.88;;;;;;;;;;5014116;28;92613;-61
2021/12/03 07:13:14;;;;;;;32.50;11.70;;;;;;;;;;5014029;28;91664;-62
2021/12/03 07:15:41;;;;;;;35.72;11.55;;;;;;;;;;5017520;28;92623;-62
2021/12/03 07:18:07;;;;;;;37.88;12.70;;;;;;;;;;5013764;28;92366;-61
2021/12/03 07:20:34;;;;;;;40.35;12.18;;;;;;;;;;5013443;28;95004;-61
2021/12/03 07:23:00;;;;;;;34.47;11.98;;;;;;;;;;5014723;28;94639;-61
2021/12/03 07:25:27;;;;;;;40.28;11.63;;;;;;;;;;5014518;28;92438;-60
2021/12/03 07:27:53;;;;;;;37.05;11.57;;;;;;;;;;5014212;28;92435;-61
2021/12/03 07:30:20;;;;;;;39.22;10.55;;;;;;;;;;5014508;28;93233;-61
2021/12/03 07:32:46;;;;;;;36.60;11.45;;;;;;;;;;5013276;28;92419;-61
2021/12/03 07:35:13;;;;;;;36.33;9.65;;;;;;;;;;5012909;28;92459;-61
2021/12/03 07:37:39;;;;;;;41.60;13.05;;;;;;;;;;5017067;28;91756;-61
2021/12/03 07:40:06;;;;;;;37.13;11.45;;;;;;;;;;5014367;28;92554;-62
2021/12/03 07:42:33;;;;;;;35.40;10.55;;;;;;;;;;5001160;28;93393;-61
2021/12/03 07:45:00;;;;;;;35.70;11.15;;;;;;;;;;4992697;28;94739;-62
2021/12/03 07:47:26;;;;;;;38.17;12.50;;;;;;;;;;4997851;28;95425;-62
2021/12/03 07:49:53;;;;;;;29.17;9.68;;;;;;;;;;5014098;28;93697;-61
2021/12/03 07:52:20;;;;;;;34.47;10.80;;;;;;;;;;5014730;28;92486;-62
2021/12/03 07:54:47;;;;;;;25.63;9.65;;;;;;;;;;5014068;28;92846;-62
2021/12/03 07:57:13;;;;;;;27.90;8.73;;;;;;;;;;5014402;28;92606;-62
2021/12/03 07:59:39;;;;;;;28.77;8.85;;;;;;;;;;5018361;28;92452;-61
2021/12/03 08:02:06;;;;;;;30.33;8.10;;;;;;;;;;5014518;28;92768;-61
2021/12/03 08:04:32;;;;;;;28.25;8.98;;;;;;;;;;5012450;28;92502;-62
2021/12/03 08:07:00;;;;;;;29.85;8.45;;;;;;;;;;5014221;28;92970;-62
2021/12/03 08:09:27;;;;;;;29.70;8.07;;;;;;;;;;5013096;28;96888;-62
2021/12/03 08:11:53;;;;;;;25.60;9.23;;;;;;;;;;5013926;28;92368;-62
2021/12/03 08:14:20;;;;;;;19.80;7.05;;;;;;;;;;5014223;28;92274;-61
2021/12/03 08:16:46;;;;;;;21.63;7.50;;;;;;;;;;5014054;28;92473;-62
2021/12/03 08:19:12;;;;;;;25.65;7.00;;;;;;;;;;5001284;28;92375;-61
2021/12/03 08:21:39;;;;;;;27.90;7.90;;;;;;;;;;5003155;28;92416;-62
2021/12/03 08:24:05;;;;;;;28.77;7.70;;;;;;;;;;5017747;28;92534;-61
2021/12/03 08:26:32;;;;;;;20.75;7.30;;;;;;;;;;5034944;27;93355;-61
2021/12/03 08:28:59;;;;;;;32.38;8.00;;;;;;;;;;5034552;27;92655;-61
2021/12/03 08:31:25;;;;;;;35.42;8.65;;;;;;;;;;5022108;27;92400;-62
2021/12/03 08:33:52;;;;;;;26.02;7.85;;;;;;;;;;5011209;28;95617;-62
2021/12/03 08:36:19;;;;;;;35.35;8.32;;;;;;;;;;5012223;28;92391;-62
2021/12/03 08:38:45;;;;;;;32.70;8.13;;;;;;;;;;5013678;28;92515;-62
2021/12/03 08:41:17;;;;;;;30.17;8.45;;;;;;;;;;5016679;28;92307;-61
2021/12/03 08:43:43;;;;;;;;;;;;;;;;;;5014732;28;92454;-61
2021/12/03 08:46:14;;;;;;;31.42;8.10;;;;;;;;;;5014901;28;123266;-62
2021/12/03 08:48:45;;;;;;;36.67;9.80;;;;;;;;;;5013873;28;93301;-62
2021/12/03 08:56:28;;;;;;;35.42;9.30;;;;;;;;;;5013601;28;92358;-62
2021/12/03 08:58:55;;;;;;;35.20;9.35;;;;;;;;;;5007468;28;94775;-61
2021/12/03 09:01:22;;;;;;;35.15;8.65;;;;;;;;;;4994063;28;94255;-61
2021/12/03 09:03:48;;;;;;;39.53;8.55;;;;;;;;;;5018184;28;93671;-61
2021/12/03 09:06:15;;;;;;;37.50;9.85;;;;;;;;;;5013627;28;92451;-62
2021/12/03 09:08:41;;;;;;;37.80;9.13;;;;;;;;;;5014102;28;93391;-62
2021/12/03 09:11:09;;;;;;;30.52;7.78;;;;;;;;;;5013541;28;92425;-62
2021/12/03 09:13:35;;;;;;;30.70;7.90;;;;;;;;;;5013585;28;93125;-62
2021/12/03 09:16:08;;;;;;;40.60;8.88;;;;;;;;;;5014115;28;91753;-60
2021/12/03 09:18:43;;;;;;;32.08;7.70;;;;;;;;;;5014145;28;92482;-63
2021/12/03 09:21:26;;;;;;;35.05;7.75;;;;;;;;;;5014069;28;93176;-63
2021/12/03 09:26:23;;;;;;;21.30;6.57;;;;;;;;;;5018152;28;92497;-63
2021/12/03 09:28:57;;;;;;;26.75;6.53;;;;;;;;;;5017225;28;93438;-63
2021/12/03 09:31:23;;;;;;;22.40;6.00;;;;;;;;;;5016994;28;92473;-63
2021/12/03 09:33:50;;;;;;;19.23;5.65;;;;;;;;;;5015765;28;92394;-63
2021/12/03 09:36:17;;;;;;;25.30;5.93;;;;;;;;;;5015265;28;93592;-61
2021/12/03 09:38:43;;;;;;;28.52;6.22;;;;;;;;;;5016418;28;92518;-62
2021/12/03 09:41:15;;;;;;;27.67;6.03;;;;;;;;;;5017899;28;94279;-61
2021/12/03 09:43:42;;;;;;;20.08;4.63;;;;;;;;;;5012792;28;95665;-61
2021/12/03 09:46:23;;;;;;;24.85;5.47;;;;;;;;;;5017369;28;92412;-62
2021/12/03 09:51:21;;;;;;;19.85;5.63;;;;;;;;;;5017526;28;92345;-62
2021/12/03 09:56:33;;;;;;;16.98;4.60;;;;;;;;;;5016495;28;92474;-61
2021/12/03 10:10:17;;;;;;;12.50;3.92;;;;;;;;;;5016651;28;92430;-62
2021/12/03 10:15:44;;;;;;;16.85;4.90;;;;;;;;;;4991550;28;95001;-62
2021/12/03 10:18:29;;;;;;;14.40;4.13;;;;;;;;;;4993482;28;92717;-62
2021/12/03 10:21:05;;;;;;;20.15;4.72;;;;;;;;;;4992975;28;92649;-62
2021/12/03 10:24:19;;;;;;;14.82;4.00;;;;;;;;;;4993758;28;92309;-62
2021/12/03 10:35:03;;;;;;;17.63;4.18;;;;;;;;;;4981608;28;93065;-62
2021/12/03 10:37:53;;;;;;;28.92;6.00;;;;;;;;;;4991563;28;92627;-62
2021/12/03 10:40:25;;;;;;;22.33;4.85;;;;;;;;;;4993713;28;94511;-62
2021/12/03 10:43:12;;;;;;;14.60;4.60;;;;;;;;;;4992036;28;94929;-63
2021/12/03 10:46:05;;;;;;;16.35;4.68;;;;;;;;;;4993223;28;95695;-63
2021/12/03 10:48:40;;;;;;;16.83;4.28;;;;;;;;;;4993356;28;93452;-63
2021/12/03 10:51:33;;;;;;;20.17;4.80;;;;;;;;;;5003012;28;92299;-62
2021/12/03 10:54:10;;;;;;;11.82;4.05;;;;;;;;;;5015824;28;93489;-63
2021/12/03 11:04:52;;;;;;;16.50;4.50;;;;;;;;;;4996784;28;92836;-62
2021/12/03 11:08:05;;;;;;;14.25;4.10;;;;;;;;;;4995555;28;92398;-61
2021/12/03 11:25:27;;;;;;;21.15;4.15;;;;;;;;;;5014530;28;92423;-62
2021/12/03 11:25:59;;;;;;;12.98;4.25;;;;;;;;;;5018437;28;93334;-62
2021/12/03 11:28:31;;;;;;;20.67;4.72;;;;;;;;;;5015008;28;92498;-62
2021/12/03 11:39:41;;;;;;;19.98;4.78;;;;;;;;;;5012495;28;94916;-62
2021/12/03 11:45:33;;;;;;;9.73;3.78;;;;;;;;;;5009309;28;92494;-62
2021/12/03 11:57:43;;;;;;;13.25;4.65;;;;;;;;;;5015187;28;94717;-62
2021/12/03 11:59:44;;;;;;;17.15;5.63;;;;;;;;;;5009113;28;91685;-61
2021/12/03 13:13:40;;;;;;;10.60;3.47;;;;;;;;;;4997788;28;92475;-62
2021/12/03 13:22:15;;;;;;;12.50;3.97;;;;;;;;;;5018070;28;91539;-61
2021/12/03 13:44:47;;;;;;;12.88;3.90;;;;;;;;;;5016632;28;92350;-61
2021/12/03 14:11:46;;;;;;;15.55;4.65;;;;;;;;;;5003530;28;92279;-61
2021/12/03 14:14:22;;;;;;;13.30;4.93;;;;;;;;;;5012206;28;93569;-62
2021/12/03 14:40:13;;;;;;;8.80;4.32;;;;;;;;;;5009629;28;93511;-62
2021/12/03 14:54:19;;;;;;;11.25;5.82;;;;;;;;;;4992781;28;93860;-61
2021/12/03 14:57:05;;;;;;;7.13;4.70;;;;;;;;;;4993530;28;92427;-62
2021/12/03 14:59:33;;;;;;;10.00;5.93;;;;;;;;;;4993973;28;92854;-62
2021/12/03 15:02:12;;;;;;;8.05;4.80;;;;;;;;;;4992700;28;92475;-62
2021/12/03 15:07:43;;;;;;;10.50;6.70;;;;;;;;;;4992719;28;92608;-61
2021/12/03 15:10:18;;;;;;;12.38;6.28;;;;;;;;;;4993758;28;91687;-61
2021/12/03 15:31:01;;;;;;;10.32;6.18;;;;;;;;;;5006110;28;92327;-62
2021/12/03 15:34:17;;;;;;;12.93;6.45;;;;;;;;;;5014451;28;93185;-62
2021/12/03 15:39:25;;;;;;;15.15;8.40;;;;;;;;;;4990227;28;92699;-62
2021/12/03 16:03:30;;;;;;;8.32;7.43;;;;;;;;;;4950479;28;92343;-62
2021/12/03 16:09:45;;;;;;;7.93;6.97;;;;;;;;;;4950680;28;92467;-62
2021/12/03 16:12:23;;;;;;;9.18;7.30;;;;;;;;;;4931671;28;94748;-62
2021/12/03 16:15:00;;;;;;;8.30;7.50;;;;;;;;;;4938148;28;92435;-62
2021/12/03 16:25:21;;;;;;;12.07;9.35;;;;;;;;;;4972087;28;93835;-62
2021/12/03 16:44:40;;;;;;;9.00;8.10;;;;;;;;;;5014342;28;92383;-63
2021/12/03 16:50:22;;;;;;;10.43;7.95;;;;;;;;;;5002208;28;93206;-63
2021/12/03 16:52:46;;;;;;;8.98;7.40;;;;;;;;;;5013704;28;92790;-63
2021/12/03 16:55:13;;;;;;;11.27;8.85;;;;;;;;;;5013762;28;93526;-63
2021/12/03 16:57:41;;;;;;;13.57;10.55;;;;;;;;;;5014071;28;92972;-62
2021/12/03 17:00:16;;;;;;;8.93;8.02;;;;;;;;;;5013504;28;92726;-63
2021/12/03 17:02:54;;;;;;;8.38;7.45;;;;;;;;;;5016183;28;93083;-63
2021/12/03 17:13:38;;;;;;;13.65;9.30;;;;;;;;;;5013777;28;92474;-63
2021/12/03 17:19:42;;;;;;;12.52;10.20;;;;;;;;;;5013103;28;93838;-62
2021/12/03 17:49:13;;;;;;;11.48;9.93;;;;;;;;;;5015936;28;93307;-62
2021/12/03 17:51:48;;;;;;;10.68;9.30;;;;;;;;;;4998971;28;92211;-62
2021/12/03 17:57:22;;;;;;;12.90;10.68;;;;;;;;;;5016385;28;92697;-61
2021/12/03 17:59:50;;;;;;;11.60;10.13;;;;;;;;;;5010072;28;94881;-61
2021/12/03 18:02:31;;;;;;;13.07;10.55;;;;;;;;;;5011225;28;93682;-62
2021/12/03 18:05:13;;;;;;;10.95;9.10;;;;;;;;;;5014951;28;92470;-61
2021/12/03 18:07:49;;;;;;;12.10;10.25;;;;;;;;;;5016742;28;94140;-61
2021/12/03 18:10:29;;;;;;;12.20;9.98;;;;;;;;;;5015039;28;93493;-61
2021/12/03 18:56:19;;;;;;;15.88;11.18;;;;;;;;;;5014782;28;92414;-62
2021/12/03 18:58:52;;;;;;;22.35;16.33;;;;;;;;;;5013140;28;92853;-62
2021/12/03 19:01:19;;;;;;;13.15;11.75;;;;;;;;;;5018000;28;94720;-62
2021/12/03 19:06:19;;;;;;;14.75;11.77;;;;;;;;;;5014660;28;93289;-62
2021/12/03 19:09:00;;;;;;;14.60;11.75;;;;;;;;;;5014746;28;92788;-62
2021/12/03 19:11:31;;;;;;;13.68;11.80;;;;;;;;;;4993886;28;92210;-62
2021/12/03 19:13:58;;;;;;;24.80;12.40;;;;;;;;;;4994847;28;92568;-62
2021/12/03 19:16:25;;;;;;;16.45;13.32;;;;;;;;;;4995225;28;92364;-62
2021/12/03 19:18:53;;;;;;;17.73;15.25;;;;;;;;;;4994443;28;95557;-62
2021/12/03 19:21:24;;;;;;;16.38;14.02;;;;;;;;;;5014119;28;93442;-62
2021/12/03 19:23:57;;;;;;;17.23;13.43;;;;;;;;;;5017662;28;92527;-62
2021/12/03 19:26:24;;;;;;;17.00;14.57;;;;;;;;;;5014127;28;92372;-62
2021/12/03 19:28:50;;;;;;;20.80;16.25;;;;;;;;;;5014679;28;92345;-63
2021/12/03 19:31:19;;;;;;;18.85;14.98;;;;;;;;;;5014179;28;92391;-62
2021/12/03 19:33:46;;;;;;;27.38;16.73;;;;;;;;;;5013152;28;93912;-62
2021/12/03 19:36:16;;;;;;;22.05;16.65;;;;;;;;;;5014728;28;91630;-62
2021/12/03 19:38:42;;;;;;;19.63;16.43;;;;;;;;;;5014201;28;94200;-62
2021/12/03 19:43:55;;;;;;;19.48;16.67;;;;;;;;;;5011190;28;95218;-62
2021/12/03 19:46:31;;;;;;;23.52;16.02;;;;;;;;;;5014072;28;92547;-62
2021/12/03 19:49:10;;;;;;;16.02;13.77;;;;;;;;;;5015130;28;92467;-62
2021/12/03 19:51:44;;;;;;;19.52;15.63;;;;;;;;;;5001919;28;94293;-62
2021/12/03 19:54:11;;;;;;;14.88;13.35;;;;;;;;;;4993866;28;93627;-62
2021/12/03 19:56:39;;;;;;;17.92;14.45;;;;;;;;;;4994311;28;92440;-62
2021/12/03 19:59:05;;;;;;;18.55;15.50;;;;;;;;;;4999995;28;92478;-62
2021/12/03 20:01:33;;;;;;;16.88;14.23;;;;;;;;;;5014369;28;92121;-62
2021/12/03 20:04:00;;;;;;;18.13;15.50;;;;;;;;;;5014875;27;92367;-62
2021/12/03 20:06:26;;;;;;;18.02;14.73;;;;;;;;;;5017144;28;93472;-63
2021/12/03 20:08:57;;;;;;;19.17;14.02;;;;;;;;;;5011686;28;95020;-63
2021/12/03 20:11:36;;;;;;;20.15;16.33;;;;;;;;;;5014849;28;94719;-62
2021/12/03 20:14:03;;;;;;;19.35;14.25;;;;;;;;;;5013557;28;93640;-62
2021/12/03 20:16:35;;;;;;;17.98;14.88;;;;;;;;;;5014101;28;92442;-62
2021/12/03 20:19:09;;;;;;;15.30;13.48;;;;;;;;;;5013733;28;93417;-63
2021/12/03 20:21:38;;;;;;;17.08;14.65;;;;;;;;;;5013458;28;93499;-63
2021/12/03 20:24:29;;;;;;;28.17;18.80;;;;;;;;;;5005123;28;92400;-63
2021/12/03 20:27:15;;;;;;;20.98;16.90;;;;;;;;;;5034465;27;93349;-63
2021/12/03 20:29:50;;;;;;;19.40;16.88;;;;;;;;;;5036741;27;93982;-63
2021/12/03 20:35:07;;;;;;;12.90;11.60;;;;;;;;;;5010719;28;95783;-64
2021/12/03 20:37:41;;;;;;;23.20;18.52;;;;;;;;;;5012890;28;92551;-63
2021/12/03 20:40:16;;;;;;;21.85;17.23;;;;;;;;;;5026481;28;93482;-62
2021/12/03 20:50:51;;;;;;;23.83;17.08;;;;;;;;;;5033089;27;93207;-62
2021/12/03 21:09:23;;;;;;;13.18;11.57;;;;;;;;;;5012700;28;95286;-62
2021/12/03 21:11:53;;;;;;;15.27;13.43;;;;;;;;;;5021849;28;92502;-62
2021/12/03 21:14:23;;;;;;;13.00;11.70;;;;;;;;;;5003666;28;92526;-62
2021/12/03 21:24:38;;;;;;;13.63;11.63;;;;;;;;;;5034894;27;92505;-62
2021/12/03 21:27:08;;;;;;;13.63;12.23;;;;;;;;;;5034764;27;94812;-62
2021/12/03 21:43:09;;;;;;;13.35;10.23;;;;;;;;;;4974460;28;94304;-61
2021/12/03 21:45:35;;;;;;;15.65;11.20;;;;;;;;;;4974378;28;92818;-61
2021/12/03 21:48:02;;;;;;;16.73;14.20;;;;;;;;;;4974098;28;92639;-62
2021/12/03 21:50:28;;;;;;;13.05;10.85;;;;;;;;;;4973840;28;92418;-62
2021/12/03 21:52:55;;;;;;;15.80;11.20;;;;;;;;;;4976092;28;95197;-63
2021/12/03 21:55:23;;;;;;;10.57;9.35;;;;;;;;;;4993161;28;93023;-62
2021/12/03 21:57:51;;;;;;;19.95;13.07;;;;;;;;;;4994724;28;92601;-63
2021/12/03 22:00:17;;;;;;;12.07;10.18;;;;;;;;;;4980579;28;92556;-62
2021/12/03 22:02:43;;;;;;;15.55;11.23;;;;;;;;;;4972116;28;94315;-62
2021/12/03 22:05:10;;;;;;;14.68;10.93;;;;;;;;;;4974348;28;93289;-61
2021/12/03 22:07:36;;;;;;;11.73;10.13;;;;;;;;;;4970652;28;92564;-62
2021/12/03 22:10:02;;;;;;;11.05;9.65;;;;;;;;;;4992453;28;94366;-62